Plymouth, California
Current Conditions -  °F | °C
As of 11:15 PM on Friday 28 Nov 2014 (Local Time) from KPVF Reporting Station
Overcast Overcast  
Wind Chill: 50°   Ceiling: 7500
Heat Index: 50°   Visibility: 8mi
Dew Point: 41°   Wind: 6mph
Humidity: 71%   Direction: 130°SE
Pressure: 29.91"   Gusts: NA
Location:  38.48°N, 120.84°W
Report Text: KPVF 290715Z AUTO 13005KT 8SM SCT065 OVC075 10/05 A2991 RMK AO1
Loading
Personal Weather Stations






























Interactive Weather Map New forecast layout! Learn more

10-Day Weather Forecast

Advertisements
Track Severe Weather on mobile